createdAt,value
2022-11-05T00:02:23.484Z,5.79
2022-11-05T00:12:44.623Z,5.76
2022-11-05T00:23:05.166Z,5.63
2022-11-05T00:33:07.523Z,5.66
2022-11-05T00:43:28.408Z,5.60
2022-11-05T00:53:30.630Z,5.69
2022-11-05T01:03:35.718Z,5.69
2022-11-05T01:13:39.061Z,5.76
2022-11-05T01:23:41.774Z,5.93
2022-11-05T01:33:43.924Z,5.91
2022-11-05T01:43:52.817Z,6.01
2022-11-05T01:53:59.949Z,5.91
2022-11-05T02:04:08.795Z,5.87
2022-11-05T02:14:11.213Z,5.86
2022-11-05T02:24:16.302Z,5.84
2022-11-05T02:34:46.622Z,5.92
2022-11-05T02:45:01.474Z,5.94
2022-11-05T02:55:27.290Z,5.91
2022-11-05T03:05:37.005Z,5.98
2022-11-05T03:15:48.930Z,6.10
2022-11-05T03:26:02.283Z,5.96
2022-11-05T03:36:11.837Z,5.97
2022-11-05T03:46:36.734Z,6.02
2022-11-05T03:57:06.366Z,6.06
2022-11-05T04:07:28.926Z,6.20
2022-11-05T04:17:31.123Z,6.35
2022-11-05T04:27:33.298Z,6.38
2022-11-05T04:37:35.491Z,6.42
2022-11-05T04:47:37.693Z,6.48
2022-11-05T04:57:40.205Z,6.54
2022-11-05T05:07:42.437Z,6.52
2022-11-05T05:17:44.759Z,6.46
2022-11-05T05:27:47.048Z,6.48
2022-11-05T05:37:49.243Z,6.48
2022-11-05T05:47:51.443Z,6.52
2022-11-05T05:57:54.740Z,6.50
2022-11-05T06:07:58.152Z,6.33
2022-11-05T06:18:00.323Z,6.40
2022-11-05T06:28:02.561Z,6.33
2022-11-05T06:38:04.762Z,6.28
2022-11-05T06:48:07.327Z,6.40
2022-11-05T06:58:09.536Z,6.56
2022-11-05T07:08:11.869Z,6.65
2022-11-05T07:18:14.122Z,6.83
2022-11-05T07:28:16.300Z,6.96
2022-11-05T07:38:19.554Z,7.10
2022-11-05T07:48:21.741Z,7.42
2022-11-05T07:58:23.947Z,7.61
2022-11-05T08:08:26.499Z,7.76
2022-11-05T08:18:32.643Z,7.97
2022-11-05T08:28:34.843Z,8.42
2022-11-05T08:38:37.114Z,8.49
2022-11-05T08:48:39.376Z,8.58
2022-11-05T08:58:41.610Z,8.46
2022-11-05T09:18:45.952Z,8.32
2022-11-05T09:28:48.204Z,8.54
2022-11-05T09:38:50.387Z,9.10
2022-11-05T09:49:02.369Z,9.56
2022-11-05T09:59:29.830Z,10.02
2022-11-05T10:09:47.871Z,9.82
2022-11-05T10:19:58.228Z,9.88
2022-11-05T10:30:00.898Z,9.85
2022-11-05T10:40:14.392Z,9.76
2022-11-05T10:50:20.143Z,9.59
2022-11-05T11:00:25.118Z,9.36
2022-11-05T11:10:28.851Z,9.23
2022-11-05T11:20:33.993Z,9.49
2022-11-05T11:30:36.238Z,10.19
2022-11-05T11:40:38.707Z,10.85
2022-11-05T11:50:44.126Z,10.37
2022-11-05T12:00:52.387Z,10.18
2022-11-05T12:11:06.579Z,9.97
2022-11-05T12:21:48.098Z,10.09
2022-11-05T12:32:23.338Z,10.90
2022-11-05T12:43:07.643Z,11.50
2022-11-05T12:53:54.140Z,10.66
2022-11-05T13:04:01.482Z,9.61
2022-11-05T13:14:10.501Z,9.09
2022-11-05T13:24:16.794Z,9.33
2022-11-05T13:34:19.033Z,9.09
2022-11-05T13:44:33.110Z,8.65
2022-11-05T13:54:57.878Z,8.45
2022-11-05T14:05:01.971Z,8.38
2022-11-05T14:15:11.545Z,8.41
2022-11-05T14:25:19.618Z,7.90
2022-11-05T14:35:36.454Z,7.32
2022-11-05T14:45:41.872Z,7.05
2022-11-05T14:55:44.295Z,6.72
2022-11-05T15:05:53.114Z,6.35
2022-11-05T15:15:56.669Z,5.98
2022-11-05T15:26:14.481Z,5.49
2022-11-05T15:36:29.309Z,4.98
2022-11-05T15:46:31.541Z,4.69
2022-11-05T15:56:39.375Z,4.40
2022-11-05T16:06:44.878Z,3.89
2022-11-05T16:16:47.107Z,3.49
2022-11-05T16:27:03.611Z,3.26
2022-11-05T16:37:10.483Z,3.01
2022-11-05T16:47:12.629Z,2.76
2022-11-05T16:57:35.077Z,2.62
2022-11-05T17:07:41.227Z,2.55
2022-11-05T17:17:43.784Z,2.52
2022-11-05T17:27:46.017Z,2.44
2022-11-05T17:37:48.478Z,2.51
2022-11-05T17:47:50.643Z,2.47
2022-11-05T17:57:52.812Z,2.47
2022-11-05T18:07:58.133Z,2.38
2022-11-05T18:18:00.336Z,2.28
2022-11-05T18:28:03.392Z,2.20
2022-11-05T18:38:05.549Z,2.09
2022-11-05T18:48:07.780Z,1.74
2022-11-05T18:58:10.243Z,1.84
2022-11-05T19:08:12.963Z,1.73
2022-11-05T19:18:15.599Z,1.67
2022-11-05T19:28:17.879Z,1.60
2022-11-05T19:38:20.040Z,1.43
2022-11-05T19:48:25.091Z,1.40
2022-11-05T19:58:27.478Z,1.30
2022-11-05T20:08:30.487Z,1.30
2022-11-05T20:18:32.852Z,1.23
2022-11-05T20:28:36.956Z,1.10
2022-11-05T20:38:39.233Z,0.93
2022-11-05T20:48:41.546Z,0.68
2022-11-05T20:58:43.776Z,0.48
2022-11-05T21:08:50.330Z,0.36
2022-11-05T21:18:52.536Z,0.24
2022-11-05T21:28:54.697Z,0.06
2022-11-05T21:40:11.670Z,0.27
2022-11-05T21:50:16.103Z,0.41
2022-11-05T22:00:21.871Z,0.40
2022-11-05T22:10:24.125Z,0.24
2022-11-05T22:20:26.385Z,0.19
2022-11-05T22:30:28.871Z,0.17
2022-11-05T22:40:31.074Z,0.19
2022-11-05T22:50:33.828Z,0.13
2022-11-05T23:00:37.602Z,0.01
2022-11-05T23:10:58.760Z,-0.22
2022-11-05T23:21:22.810Z,-0.44
2022-11-05T23:31:43.668Z,-0.66
2022-11-05T23:42:04.494Z,-0.81
2022-11-05T23:52:06.659Z,-1.04
